Flat Rock, Ohio
Current Conditions -  °F | °C
As of 4:33 PM on Saturday 25 Oct 2014 (Local Time) from KPCW Reporting Station
Clear Clear  
Wind Chill: 72°   Ceiling: Unl
Heat Index: 72°   Visibility: 10mi
Dew Point: 52°   Wind: 18mph
Humidity: 50%   Direction: 280°W
Pressure: 29.76"   Gusts: NA
Location:  41.24°N, 82.86°W
Report Text: KPCW 252033Z AUTO 28016KT 10SM CLR 22/11 A2976 RMK AO2 $
Loading
Personal Weather Stations






























Interactive Weather Map
Tropical Storm Tracking
New forecast layout! Learn more

10-Day Weather Forecast

Advertisements
Track Severe Weather on mobile